createdAt,value
2022-12-28T00:03:50.097Z,32.70
2022-12-28T00:09:52.706Z,31.77
2022-12-28T00:12:30.483Z,32.13
2022-12-28T00:14:57.855Z,32.53
2022-12-28T00:17:25.473Z,35.22
2022-12-28T00:19:52.713Z,31.67
2022-12-28T00:22:25.953Z,32.90
2022-12-28T00:24:53.393Z,33.65
2022-12-28T00:27:20.593Z,30.83
2022-12-28T00:29:49.236Z,29.38
2022-12-28T00:32:39.348Z,28.92
2022-12-28T00:35:07.909Z,26.38
2022-12-28T00:37:40.977Z,25.35
2022-12-28T00:40:10.871Z,26.27
2022-12-28T00:43:02.682Z,25.25
2022-12-28T00:45:31.001Z,25.92
2022-12-28T00:47:58.481Z,24.27
2022-12-28T00:50:41.740Z,23.52
2022-12-28T00:53:49.561Z,23.25
2022-12-28T00:56:26.561Z,24.23
2022-12-28T00:58:58.651Z,22.23
2022-12-28T01:01:28.067Z,23.38
2022-12-28T01:03:57.332Z,22.67
2022-12-28T01:06:26.263Z,22.65
2022-12-28T01:12:03.285Z,22.70
2022-12-28T01:15:05.588Z,23.23
2022-12-28T01:17:33.281Z,24.13
2022-12-28T01:20:03.868Z,23.48
2022-12-28T01:22:31.195Z,22.98
2022-12-28T01:24:59.915Z,21.83
2022-12-28T01:27:29.109Z,21.50
2022-12-28T01:29:56.394Z,23.15
2022-12-28T01:32:23.785Z,22.33
2022-12-28T01:34:51.017Z,24.40
2022-12-28T01:37:18.416Z,24.23
2022-12-28T01:39:45.857Z,23.45
2022-12-28T01:42:19.056Z,24.80
2022-12-28T01:44:50.992Z,22.38
2022-12-28T01:47:27.045Z,23.23
2022-12-28T01:50:03.733Z,21.23
2022-12-28T01:52:50.220Z,21.17
2022-12-28T01:55:24.200Z,20.17
2022-12-28T01:57:58.889Z,18.88
2022-12-28T02:00:26.891Z,18.20
2022-12-28T02:02:59.353Z,19.27
2022-12-28T02:05:36.365Z,18.75
2022-12-28T02:08:35.877Z,18.08
2022-12-28T02:11:04.549Z,18.02
2022-12-28T02:16:43.583Z,15.85
2022-12-28T02:19:17.524Z,15.68
2022-12-28T02:22:22.231Z,14.88
2022-12-28T02:25:11.423Z,15.70
2022-12-28T02:28:08.530Z,15.93
2022-12-28T02:30:47.491Z,14.32
2022-12-28T02:33:32.628Z,14.43
2022-12-28T02:36:18.277Z,14.38
2022-12-28T02:39:38.265Z,14.60
2022-12-28T02:42:09.719Z,14.07
2022-12-28T02:44:58.952Z,14.30
2022-12-28T02:47:45.097Z,13.23
2022-12-28T02:50:15.883Z,13.30
2022-12-28T02:53:31.333Z,13.10
2022-12-28T02:56:27.910Z,13.48
2022-12-28T02:59:12.653Z,13.80
2022-12-28T03:01:50.728Z,13.50
2022-12-28T03:05:45.891Z,13.40
2022-12-28T03:08:21.513Z,12.10
2022-12-28T03:11:01.192Z,13.82
2022-12-28T03:13:45.263Z,14.25
2022-12-28T03:16:29.739Z,14.73
2022-12-28T03:19:27.690Z,15.18
2022-12-28T03:22:18.415Z,15.95
2022-12-28T03:25:04.736Z,15.33
2022-12-28T03:27:52.793Z,15.82
2022-12-28T03:30:44.024Z,15.13
2022-12-28T03:33:13.083Z,15.05
2022-12-28T03:35:57.912Z,15.13
2022-12-28T03:38:31.996Z,14.85
2022-12-28T03:41:43.576Z,14.45
2022-12-28T03:44:34.147Z,13.13
2022-12-28T03:47:12.867Z,12.25
2022-12-28T03:49:41.183Z,12.15
2022-12-28T03:52:14.407Z,12.02
2022-12-28T03:54:41.934Z,12.13
2022-12-28T03:57:12.234Z,11.27
2022-12-28T03:59:43.973Z,11.15
2022-12-28T04:02:11.400Z,10.63
2022-12-28T04:04:40.119Z,10.95
2022-12-28T04:07:07.723Z,10.55
2022-12-28T04:09:35.547Z,9.88
2022-12-28T04:12:03.877Z,10.43
2022-12-28T04:14:56.660Z,10.52
2022-12-28T04:17:23.964Z,11.18
2022-12-28T04:19:51.226Z,11.13
2022-12-28T04:22:20.196Z,10.80
2022-12-28T04:24:47.538Z,11.40
2022-12-28T04:27:14.793Z,11.60
2022-12-28T04:29:44.907Z,11.95
2022-12-28T04:32:18.888Z,11.73
2022-12-28T04:34:58.665Z,12.30
2022-12-28T04:37:31.119Z,12.98
2022-12-28T04:39:58.528Z,13.63
2022-12-28T04:45:34.879Z,14.10
2022-12-28T04:48:02.299Z,15.40
2022-12-28T04:53:38.313Z,14.77
2022-12-28T04:56:07.533Z,14.30
2022-12-28T04:58:35.588Z,17.80
2022-12-28T05:01:14.868Z,19.00
2022-12-28T05:03:46.029Z,19.02
2022-12-28T05:06:20.167Z,17.63
2022-12-28T05:08:48.326Z,16.90
2022-12-28T05:11:18.882Z,16.13
2022-12-28T05:13:46.663Z,16.92
2022-12-28T05:16:17.284Z,16.92
2022-12-28T05:18:45.192Z,18.15
2022-12-28T05:21:23.646Z,15.75
2022-12-28T05:23:51.790Z,15.13
2022-12-28T05:26:22.504Z,14.05
2022-12-28T05:28:52.307Z,14.85
2022-12-28T05:31:21.672Z,14.13
2022-12-28T05:33:52.132Z,14.20
2022-12-28T05:36:22.414Z,14.40
2022-12-28T05:38:50.197Z,14.75
2022-12-28T05:41:24.843Z,14.38
2022-12-28T05:43:53.800Z,14.77
2022-12-28T05:46:29.506Z,15.07
2022-12-28T05:49:01.051Z,14.82
2022-12-28T05:51:30.883Z,15.80
2022-12-28T05:54:01.464Z,15.80
2022-12-28T05:56:33.019Z,18.35
2022-12-28T05:59:05.674Z,17.38
2022-12-28T06:01:35.978Z,18.40
2022-12-28T06:04:14.926Z,19.00
2022-12-28T06:06:42.282Z,17.38
2022-12-28T06:09:09.822Z,15.30
2022-12-28T06:11:55.856Z,13.60
2022-12-28T06:14:23.137Z,13.90
2022-12-28T06:16:51.507Z,13.68
2022-12-28T06:19:18.834Z,13.68
2022-12-28T06:21:46.080Z,13.35
2022-12-28T06:24:18.176Z,12.93
2022-12-28T06:26:45.833Z,12.52
2022-12-28T06:29:13.130Z,12.88
2022-12-28T06:31:46.855Z,13.13
2022-12-28T06:37:23.885Z,14.88
2022-12-28T06:39:51.148Z,14.18
2022-12-28T06:42:18.517Z,13.95
2022-12-28T06:44:45.771Z,14.10
2022-12-28T06:47:15.047Z,13.27
2022-12-28T06:49:49.780Z,13.23
2022-12-28T06:52:17.028Z,12.30
2022-12-28T06:54:44.244Z,12.70
2022-12-28T06:57:14.744Z,10.93
2022-12-28T06:59:45.472Z,11.55
2022-12-28T07:02:12.856Z,10.27
2022-12-28T07:04:41.671Z,10.93
2022-12-28T07:07:09.441Z,9.98
2022-12-28T07:09:36.780Z,10.52
2022-12-28T07:12:06.545Z,10.45
2022-12-28T07:14:33.850Z,9.85
2022-12-28T07:17:01.327Z,9.63
2022-12-28T07:19:28.564Z,10.00
2022-12-28T07:21:55.759Z,9.45
2022-12-28T07:24:23.471Z,10.05
2022-12-28T07:26:50.822Z,9.98
2022-12-28T07:29:18.274Z,10.13
2022-12-28T07:31:46.089Z,9.57
2022-12-28T07:34:15.195Z,8.95
2022-12-28T07:36:42.611Z,9.57
2022-12-28T07:39:10.610Z,9.50
2022-12-28T07:41:45.192Z,9.00
2022-12-28T07:46:54.096Z,9.00
2022-12-28T07:49:24.549Z,8.93
2022-12-28T07:51:51.884Z,8.90
2022-12-28T07:54:19.128Z,8.32
2022-12-28T07:56:46.485Z,8.75
2022-12-28T07:59:13.801Z,8.77
2022-12-28T08:01:41.150Z,7.45
2022-12-28T08:04:37.509Z,8.57
2022-12-28T08:07:10.567Z,9.50
2022-12-28T08:09:37.812Z,9.65
2022-12-28T08:12:05.406Z,10.13
2022-12-28T08:14:33.140Z,10.55
2022-12-28T08:17:20.693Z,12.63
2022-12-28T08:21:27.205Z,12.27
2022-12-28T08:22:42.799Z,12.55
2022-12-28T08:25:57.656Z,12.27
2022-12-28T08:31:15.120Z,10.77
2022-12-28T08:33:44.413Z,11.10
2022-12-28T08:36:12.541Z,10.50
2022-12-28T08:38:41.299Z,10.48
2022-12-28T08:41:11.900Z,10.60
2022-12-28T08:43:40.758Z,10.00
2022-12-28T08:46:15.900Z,11.75
2022-12-28T08:48:47.321Z,10.95
2022-12-28T08:51:16.676Z,10.13
2022-12-28T08:53:44.685Z,11.07
2022-12-28T08:56:38.207Z,10.65
2022-12-28T08:59:06.140Z,10.93
2022-12-28T09:01:42.998Z,10.95
2022-12-28T09:04:18.682Z,12.07
2022-12-28T09:06:46.785Z,11.18
2022-12-28T09:09:16.494Z,11.90
2022-12-28T09:11:44.805Z,11.27
2022-12-28T09:14:22.111Z,12.40
2022-12-28T09:16:50.914Z,11.13
2022-12-28T09:19:18.487Z,11.75
2022-12-28T09:21:48.913Z,13.20
2022-12-28T09:24:16.338Z,12.57
2022-12-28T09:26:43.820Z,13.20
2022-12-28T09:29:13.782Z,13.15
2022-12-28T09:31:41.875Z,13.35
2022-12-28T09:37:02.844Z,13.18
2022-12-28T09:39:30.432Z,13.52
2022-12-28T09:45:15.468Z,13.63
2022-12-28T09:52:06.057Z,13.02
2022-12-28T09:54:35.592Z,12.60
2022-12-28T09:57:03.044Z,13.82
2022-12-28T09:59:36.594Z,13.50
2022-12-28T10:02:05.388Z,13.23
2022-12-28T10:04:32.766Z,13.90
2022-12-28T10:07:02.084Z,14.70
2022-12-28T10:09:33.280Z,16.80
2022-12-28T10:12:16.170Z,16.42
2022-12-28T10:14:46.598Z,16.38
2022-12-28T10:17:15.620Z,16.50
2022-12-28T10:19:49.179Z,16.77
2022-12-28T10:22:22.484Z,15.05
2022-12-28T10:25:08.720Z,15.82
2022-12-28T10:27:36.011Z,14.75
2022-12-28T10:30:14.441Z,15.07
2022-12-28T10:33:03.103Z,15.50
2022-12-28T10:35:41.774Z,15.55
2022-12-28T10:38:27.388Z,14.57
2022-12-28T10:41:05.960Z,14.43
2022-12-28T10:43:37.267Z,14.38
2022-12-28T10:46:13.318Z,15.40
2022-12-28T10:48:49.946Z,14.38
2022-12-28T10:51:22.017Z,15.00
2022-12-28T10:54:01.282Z,14.80
2022-12-28T10:56:33.527Z,14.80
2022-12-28T10:59:12.921Z,14.60
2022-12-28T11:01:45.559Z,15.77
2022-12-28T11:04:54.288Z,14.88
2022-12-28T11:07:32.139Z,16.77
2022-12-28T11:10:26.520Z,16.25
2022-12-28T11:13:08.519Z,16.95
2022-12-28T11:15:35.990Z,16.05
2022-12-28T11:18:15.569Z,16.50
2022-12-28T11:20:48.977Z,16.13
2022-12-28T11:23:20.384Z,16.40
2022-12-28T11:25:48.229Z,15.60
2022-12-28T11:28:22.647Z,15.90
2022-12-28T11:30:52.479Z,15.80
2022-12-28T11:34:04.450Z,17.00
2022-12-28T11:36:37.614Z,16.67
2022-12-28T11:39:53.925Z,15.45
2022-12-28T11:42:57.572Z,18.48
2022-12-28T11:45:52.983Z,17.42
2022-12-28T11:48:46.440Z,17.85
2022-12-28T11:55:00.276Z,16.60
2022-12-28T11:57:54.926Z,14.75
2022-12-28T12:00:23.948Z,16.95
2022-12-28T12:03:02.540Z,17.20
2022-12-28T12:05:54.581Z,16.38
2022-12-28T12:08:21.899Z,16.45
2022-12-28T12:11:32.560Z,16.63
2022-12-28T12:14:01.585Z,16.20
2022-12-28T12:16:58.832Z,16.17
2022-12-28T12:22:20.970Z,15.73
2022-12-28T12:24:58.267Z,15.40
2022-12-28T12:27:40.549Z,15.35
2022-12-28T12:30:21.117Z,15.60
2022-12-28T12:36:23.853Z,14.82
2022-12-28T12:39:03.373Z,15.25
2022-12-28T12:42:06.325Z,16.23
2022-12-28T12:44:59.640Z,15.15
2022-12-28T12:47:36.175Z,14.50
2022-12-28T12:50:33.913Z,13.75
2022-12-28T12:57:15.376Z,13.73
2022-12-28T13:00:22.085Z,13.98
2022-12-28T13:03:21.528Z,13.85
2022-12-28T13:06:15.530Z,13.38
2022-12-28T13:08:48.383Z,13.05
2022-12-28T13:11:20.046Z,12.95
2022-12-28T13:13:50.470Z,12.35
2022-12-28T13:16:23.949Z,12.50
2022-12-28T13:19:01.799Z,13.55
2022-12-28T13:24:54.803Z,12.02
2022-12-28T13:27:34.180Z,12.35
2022-12-28T13:30:19.137Z,11.52
2022-12-28T13:33:08.973Z,10.63
2022-12-28T13:35:36.836Z,10.27
2022-12-28T13:38:08.421Z,11.55
2022-12-28T13:40:52.907Z,10.90
2022-12-28T13:43:55.781Z,11.55
2022-12-28T13:46:24.089Z,11.48
2022-12-28T13:48:53.951Z,11.77
2022-12-28T13:51:24.637Z,10.95
2022-12-28T13:54:01.251Z,10.95
2022-12-28T13:56:31.266Z,10.75
2022-12-28T14:01:52.454Z,10.02
2022-12-28T14:04:52.254Z,10.07
2022-12-28T14:07:45.897Z,10.35
2022-12-28T14:10:16.952Z,10.35
2022-12-28T14:12:45.808Z,9.68
2022-12-28T14:15:16.768Z,10.13
2022-12-28T14:17:46.470Z,10.30
2022-12-28T14:20:14.606Z,10.95
2022-12-28T14:22:42.936Z,10.55
2022-12-28T14:25:16.425Z,10.73
2022-12-28T14:27:58.067Z,10.43
2022-12-28T14:30:26.934Z,9.98
2022-12-28T14:32:59.697Z,10.52
2022-12-28T14:35:28.510Z,9.80
2022-12-28T14:38:00.908Z,10.00
2022-12-28T14:40:37.539Z,10.57
2022-12-28T14:43:25.766Z,9.80
2022-12-28T14:46:06.691Z,10.13
2022-12-28T14:48:38.149Z,10.60
2022-12-28T14:51:24.615Z,10.88
2022-12-28T14:54:13.659Z,9.35
2022-12-28T14:56:41.439Z,11.07
2022-12-28T14:59:28.284Z,10.75
2022-12-28T15:01:56.012Z,10.98
2022-12-28T15:04:39.209Z,11.38
2022-12-28T15:07:08.792Z,12.27
2022-12-28T15:09:36.592Z,12.85
2022-12-28T15:12:22.865Z,13.48
2022-12-28T15:14:50.393Z,14.05
2022-12-28T15:17:18.218Z,14.13
2022-12-28T15:19:46.765Z,14.20
2022-12-28T15:22:14.277Z,13.52
2022-12-28T15:24:45.022Z,14.23
2022-12-28T15:27:14.900Z,14.65
2022-12-28T15:30:05.150Z,13.95
2022-12-28T15:32:32.224Z,14.23
2022-12-28T15:34:59.518Z,15.10
2022-12-28T15:37:26.844Z,15.52
2022-12-28T15:39:54.271Z,15.55
2022-12-28T15:42:21.781Z,16.45
2022-12-28T15:44:51.065Z,16.58
2022-12-28T15:47:18.516Z,16.83
2022-12-28T15:49:45.826Z,18.08
2022-12-28T15:52:13.344Z,18.23
2022-12-28T15:54:46.776Z,16.20
2022-12-28T15:57:15.675Z,16.77
2022-12-28T15:59:43.063Z,17.00
2022-12-28T16:02:14.268Z,17.27
2022-12-28T16:04:42.051Z,16.92
2022-12-28T16:07:09.694Z,17.38
2022-12-28T16:09:37.408Z,17.77
2022-12-28T16:12:05.067Z,17.08
2022-12-28T16:14:32.639Z,17.98
2022-12-28T16:17:00.200Z,18.45
2022-12-28T16:19:27.550Z,16.77
2022-12-28T16:21:54.883Z,17.90
2022-12-28T16:24:29.048Z,17.42
2022-12-28T16:26:56.337Z,19.42
2022-12-28T16:29:23.718Z,20.80
2022-12-28T16:31:52.432Z,22.70
2022-12-28T16:34:19.793Z,19.70
2022-12-28T16:36:47.557Z,19.20
2022-12-28T16:39:17.581Z,17.80
2022-12-28T16:41:45.002Z,17.50
2022-12-28T16:44:18.161Z,17.60
2022-12-28T16:46:46.217Z,18.25
2022-12-28T16:49:13.844Z,21.20
2022-12-28T16:51:47.809Z,20.30
2022-12-28T16:54:20.955Z,21.25
2022-12-28T16:56:50.882Z,21.50
2022-12-28T16:59:26.899Z,23.77
2022-12-28T17:01:56.335Z,23.05
2022-12-28T17:04:23.897Z,22.83
2022-12-28T17:06:52.414Z,21.35
2022-12-28T17:09:20.660Z,23.52
2022-12-28T17:11:49.669Z,21.55
2022-12-28T17:14:35.837Z,21.33
2022-12-28T17:17:06.368Z,20.73
2022-12-28T17:19:34.125Z,20.27
2022-12-28T17:22:01.567Z,19.58
2022-12-28T17:24:28.815Z,19.45
2022-12-28T17:26:57.458Z,20.42
2022-12-28T17:29:27.777Z,19.38
2022-12-28T17:31:55.301Z,18.27
2022-12-28T17:34:23.451Z,17.00
2022-12-28T17:36:50.701Z,16.55
2022-12-28T17:39:17.969Z,17.05
2022-12-28T17:41:45.214Z,17.92
2022-12-28T17:44:12.548Z,17.02
2022-12-28T17:46:42.720Z,17.75
2022-12-28T17:49:15.460Z,19.30
2022-12-28T17:51:44.485Z,21.35
2022-12-28T17:54:13.580Z,20.77
2022-12-28T17:56:42.478Z,21.58
2022-12-28T17:59:15.244Z,19.63
2022-12-28T18:01:43.117Z,18.73
2022-12-28T18:04:12.015Z,19.95
2022-12-28T18:06:39.670Z,20.35
2022-12-28T18:09:07.247Z,21.00
2022-12-28T18:11:34.619Z,19.75
2022-12-28T18:14:01.962Z,21.30
2022-12-28T18:16:32.490Z,20.70
2022-12-28T18:18:59.971Z,21.00
2022-12-28T18:21:27.336Z,21.27
2022-12-28T18:23:54.581Z,21.25
2022-12-28T18:26:26.234Z,19.45
2022-12-28T18:28:54.717Z,19.38
2022-12-28T18:31:41.742Z,20.27
2022-12-28T18:34:09.524Z,19.88
2022-12-28T18:36:36.939Z,20.17
2022-12-28T18:39:04.328Z,19.30
2022-12-28T18:41:34.228Z,20.67
2022-12-28T18:44:02.941Z,21.25
2022-12-28T18:46:30.895Z,20.25
2022-12-28T18:49:00.403Z,20.17
2022-12-28T18:51:27.951Z,20.98
2022-12-28T18:53:55.422Z,21.10
2022-12-28T18:56:24.145Z,20.50
2022-12-28T18:58:55.809Z,19.75
2022-12-28T19:02:04.577Z,19.98
2022-12-28T19:04:13.099Z,20.98
2022-12-28T19:06:41.459Z,19.67
2022-12-28T19:09:10.324Z,20.77
2022-12-28T19:11:38.628Z,21.52
2022-12-28T19:14:08.023Z,22.48
2022-12-28T19:16:35.330Z,25.23
2022-12-28T19:19:03.184Z,25.00
2022-12-28T19:21:33.483Z,23.92
2022-12-28T19:24:03.718Z,26.20
2022-12-28T19:26:33.011Z,26.42
2022-12-28T19:29:00.313Z,26.30
2022-12-28T19:31:28.308Z,25.23
2022-12-28T19:33:55.795Z,23.35
2022-12-28T19:36:23.100Z,23.15
2022-12-28T19:38:50.379Z,22.92
2022-12-28T19:41:17.653Z,21.10
2022-12-28T19:43:45.120Z,23.42
2022-12-28T19:46:21.056Z,22.48
2022-12-28T19:48:48.556Z,21.90
2022-12-28T19:51:15.889Z,22.92
2022-12-28T19:53:43.538Z,20.67
2022-12-28T19:56:16.900Z,20.70
2022-12-28T19:58:45.444Z,21.83
2022-12-28T20:01:17.216Z,21.15
2022-12-28T20:03:45.682Z,21.35
2022-12-28T20:06:18.515Z,23.50
2022-12-28T20:08:47.189Z,30.67
2022-12-28T20:11:14.804Z,25.17
2022-12-28T20:13:42.636Z,23.75
2022-12-28T20:16:10.439Z,22.95
2022-12-28T20:18:37.683Z,24.48
2022-12-28T20:21:19.121Z,22.10
2022-12-28T20:23:51.447Z,22.48
2022-12-28T20:26:20.111Z,22.02
2022-12-28T20:28:50.043Z,21.83
2022-12-28T20:31:17.450Z,21.70
2022-12-28T20:33:45.354Z,21.13
2022-12-28T20:36:18.817Z,20.33
2022-12-28T20:38:47.202Z,20.58
2022-12-28T20:41:41.073Z,19.92
2022-12-28T20:44:11.541Z,18.55
2022-12-28T20:46:39.166Z,20.48
2022-12-28T20:49:06.809Z,18.85
2022-12-28T20:51:34.654Z,19.42
2022-12-28T20:54:02.280Z,18.92
2022-12-28T20:56:30.185Z,19.27
2022-12-28T20:58:58.341Z,17.77
2022-12-28T21:01:25.871Z,19.65
2022-12-28T21:03:53.280Z,19.13
2022-12-28T21:06:20.646Z,18.50
2022-12-28T21:08:48.042Z,18.05
2022-12-28T21:11:15.337Z,18.38
2022-12-28T21:13:45.012Z,19.90
2022-12-28T21:16:13.948Z,18.90
2022-12-28T21:18:42.568Z,18.58
2022-12-28T21:21:19.076Z,19.00
2022-12-28T21:23:46.556Z,19.02
2022-12-28T21:26:18.814Z,17.98
2022-12-28T21:28:46.863Z,19.05
2022-12-28T21:31:14.517Z,20.23
2022-12-28T21:33:42.531Z,17.58
2022-12-28T21:36:21.876Z,17.10
2022-12-28T21:38:49.532Z,20.13
2022-12-28T21:41:40.865Z,20.50
2022-12-28T21:44:10.754Z,20.10
2022-12-28T21:46:38.584Z,21.55
2022-12-28T21:49:11.871Z,21.92
2022-12-28T21:51:40.645Z,20.48
2022-12-28T21:54:23.040Z,18.08
2022-12-28T21:56:53.327Z,17.52
2022-12-28T21:59:21.957Z,18.83
2022-12-28T22:02:08.428Z,18.33
2022-12-28T22:05:01.815Z,18.13
2022-12-28T22:07:30.167Z,17.42
2022-12-28T22:10:16.308Z,17.35
2022-12-28T22:12:43.620Z,17.23
2022-12-28T22:15:38.123Z,18.05
2022-12-28T22:18:10.939Z,17.92
2022-12-28T22:20:47.364Z,17.58
2022-12-28T22:23:15.516Z,17.67
2022-12-28T22:25:42.796Z,18.67
2022-12-28T22:28:10.049Z,17.88
2022-12-28T22:30:37.565Z,17.77
2022-12-28T22:33:07.034Z,17.60
2022-12-28T22:35:34.381Z,18.00
2022-12-28T22:38:01.678Z,17.75
2022-12-28T22:40:29.174Z,17.95
2022-12-28T22:42:56.475Z,17.17
2022-12-28T22:45:24.128Z,17.55
2022-12-28T22:47:59.271Z,17.08
2022-12-28T22:50:29.515Z,16.15
2022-12-28T22:52:59.135Z,17.45
2022-12-28T22:55:26.511Z,17.38
2022-12-28T22:58:20.301Z,16.80
2022-12-28T23:00:47.535Z,16.58
2022-12-28T23:03:15.056Z,16.75
2022-12-28T23:05:50.633Z,16.70
2022-12-28T23:08:18.025Z,16.63
2022-12-28T23:11:02.324Z,16.27
2022-12-28T23:13:33.270Z,15.98
2022-12-28T23:16:04.100Z,16.33
2022-12-28T23:18:55.838Z,15.80
2022-12-28T23:21:44.520Z,15.18
2022-12-28T23:24:34.786Z,15.48
2022-12-28T23:27:22.068Z,15.68
2022-12-28T23:29:50.461Z,15.90
2022-12-28T23:32:22.971Z,15.57
2022-12-28T23:34:59.405Z,14.43
2022-12-28T23:39:54.557Z,15.82
2022-12-28T23:42:22.299Z,16.92
2022-12-28T23:44:49.790Z,16.38
2022-12-28T23:47:17.338Z,16.67
2022-12-28T23:49:44.757Z,16.30
2022-12-28T23:52:12.444Z,16.55
2022-12-28T23:54:39.846Z,17.10
2022-12-28T23:57:09.494Z,17.02
2022-12-28T23:59:36.880Z,17.35
